createdAt,value
2022-08-05T00:01:36.242Z,102169.88
2022-08-05T00:04:16.774Z,102161.97
2022-08-05T00:06:45.337Z,102157.63
2022-08-05T00:09:16.047Z,102153.31
2022-08-05T00:11:55.618Z,102165.03
2022-08-05T00:14:27.540Z,102166.94
2022-08-05T00:16:56.997Z,102160.00
2022-08-05T00:19:32.787Z,102156.69
2022-08-05T00:22:01.912Z,102159.66
2022-08-05T00:24:30.901Z,102163.53
2022-08-05T00:27:00.806Z,102163.00
2022-08-05T00:29:37.831Z,102154.38
2022-08-05T00:32:12.219Z,102161.00
2022-08-05T00:35:05.542Z,102164.84
2022-08-05T00:37:50.420Z,102165.09
2022-08-05T00:40:26.790Z,102163.69
2022-08-05T00:42:58.344Z,102168.44
2022-08-05T00:45:38.066Z,102171.41
2022-08-05T00:48:10.785Z,102175.22
2022-08-05T00:50:41.352Z,102175.31
2022-08-05T00:54:00.617Z,102184.22
2022-08-05T00:55:57.855Z,102179.97
2022-08-05T00:58:27.543Z,102187.38
2022-08-05T01:00:55.719Z,102178.50
2022-08-05T01:03:24.282Z,102184.81
2022-08-05T01:05:58.991Z,102188.50
2022-08-05T01:08:40.930Z,102197.50
2022-08-05T01:11:13.656Z,102192.38
2022-08-05T01:13:58.699Z,102185.81
2022-08-05T01:16:30.350Z,102195.41
2022-08-05T01:19:01.100Z,102200.94
2022-08-05T01:21:44.505Z,102197.34
2022-08-05T01:24:30.169Z,102193.63
2022-08-05T01:27:17.947Z,102203.63
2022-08-05T01:29:50.382Z,102193.88
2022-08-05T01:32:22.172Z,102199.34
2022-08-05T01:34:52.138Z,102197.53
2022-08-05T01:37:36.694Z,102196.66
2022-08-05T01:40:12.497Z,102199.34
2022-08-05T01:42:41.068Z,102195.31
2022-08-05T01:45:11.158Z,102202.16
2022-08-05T01:47:43.251Z,102194.34
2022-08-05T01:50:15.017Z,102205.81
2022-08-05T01:52:44.272Z,102195.44
2022-08-05T01:55:13.008Z,102184.94
2022-08-05T01:58:11.161Z,102201.63
2022-08-05T02:00:34.294Z,102190.31
2022-08-05T02:03:05.236Z,102196.56
2022-08-05T02:05:35.927Z,102180.25
2022-08-05T02:08:04.998Z,102182.56
2022-08-05T02:10:35.889Z,102198.47
2022-08-05T02:13:15.763Z,102195.69
2022-08-05T02:15:47.773Z,102183.53
2022-08-05T02:18:30.645Z,102191.28
2022-08-05T02:21:03.235Z,102194.84
2022-08-05T02:23:35.713Z,102194.13
2022-08-05T02:26:04.565Z,102194.13
2022-08-05T02:28:38.294Z,102200.53
2022-08-05T02:31:14.634Z,102198.81
2022-08-05T02:33:46.070Z,102198.88
2022-08-05T02:36:17.890Z,102200.84
2022-08-05T02:38:53.613Z,102197.38
2022-08-05T02:41:23.134Z,102205.59
2022-08-05T02:44:06.404Z,102218.56
2022-08-05T02:46:53.114Z,102212.88
2022-08-05T02:49:26.831Z,102209.63
2022-08-05T02:52:04.375Z,102218.63
2022-08-05T02:54:37.194Z,102170.59
2022-08-05T02:57:10.209Z,102211.44
2022-08-05T02:59:55.187Z,102214.22
2022-08-05T03:02:27.435Z,102211.56
2022-08-05T03:04:55.952Z,102216.91
2022-08-05T03:08:00.705Z,102216.91
2022-08-05T03:10:13.406Z,102219.09
2022-08-05T03:12:41.400Z,102220.41
2022-08-05T03:15:12.233Z,102223.50
2022-08-05T03:17:44.888Z,102219.94
2022-08-05T03:20:13.712Z,102217.16
2022-08-05T03:22:46.730Z,102233.47
2022-08-05T03:25:33.114Z,102229.50
2022-08-05T03:28:07.093Z,102227.25
2022-08-05T03:30:36.529Z,102226.47
2022-08-05T03:33:07.507Z,102229.06
2022-08-05T03:35:40.739Z,102231.75
2022-08-05T03:38:11.714Z,102232.06
2022-08-05T03:40:41.415Z,102238.78
2022-08-05T03:43:59.294Z,102235.69
2022-08-05T03:46:01.565Z,102245.56
2022-08-05T03:48:35.239Z,102243.66
2022-08-05T03:52:37.822Z,102236.75
2022-08-05T03:55:53.093Z,102239.97
2022-08-05T03:56:46.497Z,102232.19
2022-08-05T03:59:16.112Z,102249.84
2022-08-05T04:01:49.446Z,102242.88
2022-08-05T04:04:21.353Z,102254.03
2022-08-05T04:06:51.146Z,102250.34
2022-08-05T04:09:20.278Z,102251.97
2022-08-05T04:11:54.215Z,102256.38
2022-08-05T04:14:30.587Z,102244.03
2022-08-05T04:16:59.796Z,102251.00
2022-08-05T04:19:29.527Z,102258.13
2022-08-05T04:22:08.641Z,102262.50
2022-08-05T04:24:44.587Z,102269.69
2022-08-05T04:27:33.104Z,102261.63
2022-08-05T04:30:09.192Z,102257.16
2022-08-05T04:32:37.751Z,102267.72
2022-08-05T04:35:17.609Z,102272.16
2022-08-05T04:38:01.191Z,102273.97
2022-08-05T04:40:31.061Z,102277.44
2022-08-05T04:42:59.098Z,102280.03
2022-08-05T04:45:47.927Z,102279.03
2022-08-05T04:48:26.983Z,102295.97
2022-08-05T04:51:02.668Z,102292.25
2022-08-05T04:53:33.489Z,102255.00
2022-08-05T04:56:32.912Z,102298.22
2022-08-05T04:58:51.713Z,102302.50
2022-08-05T05:02:04.082Z,102312.22
2022-08-05T05:04:08.375Z,102302.50
2022-08-05T05:06:44.277Z,102303.31
2022-08-05T05:09:16.077Z,102315.88
2022-08-05T05:11:54.602Z,102310.50
2022-08-05T05:14:27.848Z,102320.38
2022-08-05T05:17:00.227Z,102313.13
2022-08-05T05:19:36.857Z,102315.75
2022-08-05T05:22:22.651Z,102313.81
2022-08-05T05:24:57.654Z,102318.22
2022-08-05T05:27:44.614Z,102323.53
2022-08-05T05:30:29.736Z,102325.06
2022-08-05T05:33:03.838Z,102334.56
2022-08-05T05:35:44.356Z,102332.59
2022-08-05T05:38:14.454Z,102334.34
2022-08-05T05:40:49.579Z,102336.06
2022-08-05T05:43:21.874Z,102338.72
2022-08-05T05:45:56.402Z,102336.81
2022-08-05T05:48:27.576Z,102341.25
2022-08-05T05:50:55.809Z,102343.88
2022-08-05T05:53:25.165Z,102349.97
2022-08-05T05:56:00.861Z,102343.56
2022-08-05T05:58:31.742Z,102347.13
2022-08-05T06:01:02.220Z,102348.88
2022-08-05T06:04:00.600Z,102356.66
2022-08-05T06:06:33.107Z,102361.72
2022-08-05T06:09:04.281Z,102366.09
2022-08-05T06:11:33.063Z,102365.13
2022-08-05T06:14:01.061Z,102371.97
2022-08-05T06:16:32.796Z,102375.16
2022-08-05T06:19:05.970Z,102373.03
2022-08-05T06:21:37.088Z,102380.78
2022-08-05T06:24:11.959Z,102385.00
2022-08-05T06:26:52.209Z,102390.81
2022-08-05T06:29:25.104Z,102386.78
2022-08-05T06:32:26.245Z,102396.38
2022-08-05T06:34:57.845Z,102389.88
2022-08-05T06:37:56.182Z,102402.25
2022-08-05T06:40:18.161Z,102406.50
2022-08-05T06:42:51.735Z,102405.44
2022-08-05T06:45:44.082Z,102406.22
2022-08-05T06:48:46.858Z,102407.81
2022-08-05T06:50:56.919Z,102399.47
2022-08-05T06:53:28.208Z,102404.69
2022-08-05T06:55:58.261Z,102407.31
2022-08-05T06:58:35.346Z,102405.47
2022-08-05T07:01:05.991Z,102405.25
2022-08-05T07:03:34.082Z,102412.28
2022-08-05T07:06:06.284Z,102411.25
2022-08-05T07:08:43.150Z,102412.94
2022-08-05T07:11:17.762Z,102421.66
2022-08-05T07:14:07.671Z,102422.34
2022-08-05T07:17:58.778Z,102429.31
2022-08-05T07:20:31.638Z,102429.84
2022-08-05T07:22:30.147Z,102431.16
2022-08-05T07:25:55.576Z,102435.03
2022-08-05T07:27:57.160Z,102441.41
2022-08-05T07:30:32.204Z,102446.19
2022-08-05T07:33:01.738Z,102447.72
2022-08-05T07:36:02.653Z,102451.63
2022-08-05T07:38:26.326Z,102459.84
2022-08-05T07:41:35.167Z,102461.69
2022-08-05T07:43:52.393Z,102465.81
2022-08-05T07:46:25.080Z,102469.06
2022-08-05T07:49:04.535Z,102461.66
2022-08-05T07:51:48.776Z,102469.75
2022-08-05T07:54:23.150Z,102465.94
2022-08-05T07:57:02.822Z,102470.94
2022-08-05T07:59:43.499Z,102478.03
2022-08-05T08:02:15.916Z,102496.31
2022-08-05T08:04:49.215Z,102495.78
2022-08-05T08:07:18.290Z,102498.31
2022-08-05T08:09:52.444Z,102471.81
2022-08-05T08:12:35.310Z,102504.19
2022-08-05T08:15:15.767Z,102497.56
2022-08-05T08:17:50.571Z,102494.06
2022-08-05T08:20:59.873Z,102504.88
2022-08-05T08:23:59.994Z,102492.25
2022-08-05T08:26:00.330Z,102500.00
2022-08-05T08:28:36.183Z,102505.94
2022-08-05T08:31:07.146Z,102514.72
2022-08-05T08:33:37.670Z,102509.03
2022-08-05T08:36:38.451Z,102509.50
2022-08-05T08:38:56.961Z,102518.91
2022-08-05T08:41:52.412Z,102498.81
2022-08-05T08:45:25.240Z,102508.56
2022-08-05T08:47:03.156Z,102517.59
2022-08-05T08:50:23.315Z,102519.25
2022-08-05T08:52:21.305Z,102521.59
2022-08-05T08:54:52.737Z,102538.88
2022-08-05T08:57:21.077Z,102539.50
2022-08-05T08:59:50.893Z,102536.00
2022-08-05T09:02:21.803Z,102540.47
2022-08-05T09:05:16.172Z,102539.06
2022-08-05T09:07:56.713Z,102525.72
2022-08-05T09:10:27.096Z,102538.34
2022-08-05T09:12:56.039Z,102539.22
2022-08-05T09:15:24.022Z,102545.16
2022-08-05T09:17:54.723Z,102543.16
2022-08-05T09:20:37.520Z,102540.63
2022-08-05T09:23:19.748Z,102544.22
2022-08-05T09:26:01.831Z,102535.25
2022-08-05T09:28:33.497Z,102554.16
2022-08-05T09:31:23.442Z,102550.72
2022-08-05T09:33:56.645Z,102548.38
2022-08-05T09:36:27.759Z,102550.22
2022-08-05T09:39:02.610Z,102550.41
2022-08-05T09:41:32.749Z,102558.69
2022-08-05T09:44:01.210Z,102552.69
2022-08-05T09:46:30.268Z,102551.56
2022-08-05T09:49:08.032Z,102530.63
2022-08-05T09:51:48.767Z,102546.94
2022-08-05T09:54:21.417Z,102551.09
2022-08-05T09:57:01.741Z,102550.03
2022-08-05T09:59:35.055Z,102555.56
2022-08-05T10:02:05.153Z,102550.59
2022-08-05T10:04:41.037Z,102540.19
2022-08-05T10:07:20.119Z,102544.25
2022-08-05T10:10:14.282Z,102538.13
2022-08-05T10:12:49.743Z,102532.69
2022-08-05T10:15:20.988Z,102545.31
2022-08-05T10:18:08.758Z,102535.53
2022-08-05T10:20:40.191Z,102546.47
2022-08-05T10:23:08.888Z,102555.56
2022-08-05T10:25:50.218Z,102560.19
2022-08-05T10:28:19.350Z,102555.47
2022-08-05T10:32:47.206Z,102545.22
2022-08-05T10:33:45.638Z,102548.22
2022-08-05T10:36:23.738Z,102521.91
2022-08-05T10:38:57.502Z,102547.63
2022-08-05T10:41:45.172Z,102544.78
2022-08-05T10:44:18.608Z,102545.03
2022-08-05T10:46:50.550Z,102558.31
2022-08-05T10:49:19.221Z,102557.44
2022-08-05T10:52:00.160Z,102558.31
2022-08-05T10:54:56.801Z,102557.16
2022-08-05T10:57:30.843Z,102561.56
2022-08-05T11:00:18.644Z,102563.88
2022-08-05T11:03:25.628Z,102569.94
2022-08-05T11:06:16.095Z,102568.44
2022-08-05T11:09:18.645Z,102579.25
2022-08-05T11:11:53.970Z,102580.97
2022-08-05T11:14:49.512Z,102582.13
2022-08-05T11:17:59.193Z,102581.84
2022-08-05T11:20:44.011Z,102587.19
2022-08-05T11:23:33.454Z,102585.19
2022-08-05T11:26:32.181Z,102592.66
2022-08-05T11:29:12.310Z,102585.31
2022-08-05T11:31:54.030Z,102607.31
2022-08-05T11:34:37.307Z,102593.13
2022-08-05T11:37:06.212Z,102593.00
2022-08-05T11:40:00.499Z,102600.84
2022-08-05T11:42:32.934Z,102597.47
2022-08-05T11:45:23.316Z,102603.81
2022-08-05T11:47:55.750Z,102608.19
2022-08-05T11:50:25.148Z,102605.00
2022-08-05T11:52:57.766Z,102608.16
2022-08-05T11:55:32.022Z,102616.59
2022-08-05T11:58:10.417Z,102619.63
2022-08-05T12:00:41.436Z,102622.22
2022-08-05T12:03:28.429Z,102616.91
2022-08-05T12:06:02.943Z,102607.56
2022-08-05T12:08:31.732Z,102622.03
2022-08-05T12:11:05.642Z,102613.56
2022-08-05T12:13:48.808Z,102618.44
2022-08-05T12:16:19.500Z,102615.97
2022-08-05T12:18:52.739Z,102629.47
2022-08-05T12:21:23.633Z,102612.97
2022-08-05T12:24:04.799Z,102614.00
2022-08-05T12:26:35.472Z,102622.00
2022-08-05T12:29:09.377Z,102625.72
2022-08-05T12:31:45.994Z,102625.81
2022-08-05T12:34:20.600Z,102631.03
2022-08-05T12:36:50.180Z,102631.66
2022-08-05T12:39:19.220Z,102633.16
2022-08-05T12:41:47.367Z,102639.56
2022-08-05T12:44:28.626Z,102641.38
2022-08-05T12:47:02.428Z,102641.16
2022-08-05T12:50:04.278Z,102645.97
2022-08-05T12:52:33.924Z,102639.81
2022-08-05T12:55:03.528Z,102642.81
2022-08-05T12:58:50.395Z,102648.09
2022-08-05T13:02:01.735Z,102646.03
2022-08-05T13:03:15.814Z,102651.75
2022-08-05T13:05:47.488Z,102647.75
2022-08-05T13:08:19.211Z,102650.03
2022-08-05T13:10:50.775Z,102646.81
2022-08-05T13:14:04.725Z,102657.44
2022-08-05T13:16:15.334Z,102644.41
2022-08-05T13:18:52.225Z,102663.41
2022-08-05T13:21:23.316Z,102666.25
2022-08-05T13:23:56.603Z,102655.28
2022-08-05T13:26:30.160Z,102666.03
2022-08-05T13:28:58.979Z,102654.88
2022-08-05T13:31:33.747Z,102661.22
2022-08-05T13:34:21.507Z,102661.03
2022-08-05T13:36:53.300Z,102671.78
2022-08-05T13:39:24.498Z,102668.16
2022-08-05T13:42:14.097Z,102660.66
2022-08-05T13:44:45.424Z,102678.44
2022-08-05T13:47:35.909Z,102670.59
2022-08-05T13:50:04.469Z,102675.53
2022-08-05T13:52:35.198Z,102679.81
2022-08-05T13:55:07.362Z,102665.91
2022-08-05T13:57:49.016Z,102669.00
2022-08-05T14:00:27.052Z,102662.28
2022-08-05T14:02:57.461Z,102666.16
2022-08-05T14:05:48.129Z,102671.56
2022-08-05T14:08:20.707Z,102678.41
2022-08-05T14:11:03.261Z,102673.44
2022-08-05T14:13:43.215Z,102673.81
2022-08-05T14:16:16.750Z,102674.16
2022-08-05T14:18:46.645Z,102680.09
2022-08-05T14:22:07.729Z,102677.66
2022-08-05T14:24:02.477Z,102676.91
2022-08-05T14:26:38.531Z,102673.88
2022-08-05T14:29:16.665Z,102682.13
2022-08-05T14:32:02.188Z,102677.22
2022-08-05T14:34:35.514Z,102675.34
2022-08-05T14:37:04.207Z,102668.72
2022-08-05T14:39:49.536Z,102674.47
2022-08-05T14:42:21.847Z,102673.72
2022-08-05T14:44:50.046Z,102668.09
2022-08-05T14:47:23.976Z,102672.09
2022-08-05T14:50:18.418Z,102662.78
2022-08-05T14:52:57.632Z,102659.09
2022-08-05T14:55:38.347Z,102669.22
2022-08-05T14:58:11.278Z,102666.91
2022-08-05T15:00:59.446Z,102661.75
2022-08-05T15:03:33.828Z,102662.09
2022-08-05T15:06:15.048Z,102657.53
2022-08-05T15:08:59.214Z,102656.00
2022-08-05T15:11:51.828Z,102659.09
2022-08-05T15:14:33.471Z,102662.47
2022-08-05T15:17:04.170Z,102663.44
2022-08-05T15:19:32.571Z,102663.94
2022-08-05T15:22:02.314Z,102665.50
2022-08-05T15:24:30.337Z,102664.81
2022-08-05T15:26:58.762Z,102666.38
2022-08-05T15:29:29.744Z,102655.53
2022-08-05T15:32:02.211Z,102666.44
2022-08-05T15:34:33.631Z,102662.16
2022-08-05T15:37:07.026Z,102670.63
2022-08-05T15:41:00.430Z,102667.59
2022-08-05T15:42:54.223Z,102669.34
2022-08-05T15:45:18.961Z,102667.56
2022-08-05T15:48:07.054Z,102664.22
2022-08-05T15:50:35.160Z,102656.94
2022-08-05T15:53:05.757Z,102675.00
2022-08-05T15:56:03.141Z,102672.13
2022-08-05T15:58:23.251Z,102657.06
2022-08-05T16:01:11.889Z,102670.50
2022-08-05T16:03:40.984Z,102666.19
2022-08-05T16:06:11.179Z,102669.94
2022-08-05T16:08:41.036Z,102647.63
2022-08-05T16:11:10.631Z,102677.34
2022-08-05T16:13:38.607Z,102674.31
2022-08-05T16:16:07.369Z,102661.38
2022-08-05T16:18:52.466Z,102662.88
2022-08-05T16:22:00.020Z,102656.69
2022-08-05T16:24:12.850Z,102657.00
2022-08-05T16:26:59.142Z,102669.00
2022-08-05T16:29:28.634Z,102670.97
2022-08-05T16:31:59.248Z,102674.13
2022-08-05T16:34:27.395Z,102678.53
2022-08-05T16:36:55.457Z,102671.81
2022-08-05T16:40:04.757Z,102670.31
2022-08-05T16:42:18.443Z,102673.41
2022-08-05T16:44:54.040Z,102673.56
2022-08-05T16:47:35.961Z,102673.94
2022-08-05T16:50:05.505Z,102675.91
2022-08-05T16:52:33.823Z,102681.66
2022-08-05T16:55:04.285Z,102679.41
2022-08-05T16:57:50.514Z,102687.56
2022-08-05T17:00:26.126Z,102676.06
2022-08-05T17:03:03.525Z,102684.19
2022-08-05T17:05:31.661Z,102681.41
2022-08-05T17:08:00.063Z,102681.59
2022-08-05T17:10:30.535Z,102681.91
2022-08-05T17:12:58.669Z,102674.03
2022-08-05T17:15:47.809Z,102664.22
2022-08-05T17:18:17.685Z,102673.75
2022-08-05T17:20:46.982Z,102669.88
2022-08-05T17:24:03.251Z,102675.56
2022-08-05T17:26:04.328Z,102678.38
2022-08-05T17:28:32.605Z,102664.34
2022-08-05T17:31:00.597Z,102677.13
2022-08-05T17:33:39.083Z,102672.13
2022-08-05T17:36:33.783Z,102675.81
2022-08-05T17:39:04.182Z,102679.69
2022-08-05T17:42:17.473Z,102674.94
2022-08-05T17:44:26.514Z,102681.75
2022-08-05T17:47:00.403Z,102691.59
2022-08-05T17:49:28.344Z,102692.38
2022-08-05T17:52:16.468Z,102692.25
2022-08-05T17:54:44.708Z,102689.03
2022-08-05T17:57:14.202Z,102695.28
2022-08-05T17:59:42.645Z,102692.88
2022-08-05T18:02:11.075Z,102706.66
2022-08-05T18:04:51.449Z,102704.28
2022-08-05T18:07:21.535Z,102705.41
2022-08-05T18:09:58.795Z,102706.69
2022-08-05T18:12:32.008Z,102700.00
2022-08-05T18:15:01.991Z,102697.53
2022-08-05T18:18:00.481Z,102698.00
2022-08-05T18:20:17.851Z,102694.13
2022-08-05T18:22:54.739Z,102710.50
2022-08-05T18:25:25.314Z,102708.09
2022-08-05T18:28:05.159Z,102705.34
2022-08-05T18:30:33.704Z,102717.19
2022-08-05T18:33:01.711Z,102716.56
2022-08-05T18:35:59.874Z,102720.84
2022-08-05T18:38:19.281Z,102722.22
2022-08-05T18:41:55.404Z,102717.34
2022-08-05T18:43:48.602Z,102728.56
2022-08-05T18:46:19.901Z,102724.28
2022-08-05T18:48:52.257Z,102723.69
2022-08-05T18:52:04.357Z,102724.06
2022-08-05T18:54:26.259Z,102720.97
2022-08-05T18:56:57.188Z,102733.97
2022-08-05T18:59:43.440Z,102728.84
2022-08-05T19:02:26.694Z,102726.31
2022-08-05T19:05:01.227Z,102732.88
2022-08-05T19:07:45.167Z,102727.63
2022-08-05T19:10:14.438Z,102744.84
2022-08-05T19:12:43.079Z,102739.59
2022-08-05T19:15:54.730Z,102737.22
2022-08-05T19:18:09.385Z,102735.72
2022-08-05T19:20:41.690Z,102745.13
2022-08-05T19:24:05.770Z,102738.44
2022-08-05T19:26:03.795Z,102734.25
2022-08-05T19:28:32.879Z,102734.41
2022-08-05T19:31:05.977Z,102739.72
2022-08-05T19:33:36.812Z,102738.16
2022-08-05T19:36:06.911Z,102730.91
2022-08-05T19:38:35.850Z,102737.47
2022-08-05T19:41:07.129Z,102745.28
2022-08-05T19:44:05.506Z,102740.19
2022-08-05T19:46:30.625Z,102752.34
2022-08-05T19:49:01.214Z,102755.38
2022-08-05T19:52:06.011Z,102753.91
2022-08-05T19:54:27.075Z,102754.06
2022-08-05T19:56:59.710Z,102757.66
2022-08-05T19:59:54.746Z,102760.59
2022-08-05T20:02:20.165Z,102759.94
2022-08-05T20:04:48.606Z,102764.03
2022-08-05T20:07:46.188Z,102764.25
2022-08-05T20:10:13.656Z,102771.72
2022-08-05T20:12:45.995Z,102777.34
2022-08-05T20:15:15.921Z,102775.88
2022-08-05T20:18:09.614Z,102784.03
2022-08-05T20:20:38.018Z,102782.44
2022-08-05T20:23:06.678Z,102790.44
2022-08-05T20:25:40.115Z,102797.94
2022-08-05T20:28:13.664Z,102789.97
2022-08-05T20:30:42.678Z,102798.22
2022-08-05T20:33:12.480Z,102806.50
2022-08-05T20:35:45.475Z,102803.03
2022-08-05T20:38:20.192Z,102806.69
2022-08-05T20:40:50.826Z,102813.91
2022-08-05T20:43:57.717Z,102813.91
2022-08-05T20:46:06.932Z,102816.50
2022-08-05T20:48:36.489Z,102824.56
2022-08-05T20:51:07.959Z,102818.13
2022-08-05T20:53:40.890Z,102828.09
2022-08-05T20:56:09.879Z,102818.38
2022-08-05T20:58:37.898Z,102825.72
2022-08-05T21:01:05.939Z,102824.03
2022-08-05T21:03:34.498Z,102820.50
2022-08-05T21:06:04.333Z,102825.06
2022-08-05T21:08:52.359Z,102819.75
2022-08-05T21:12:06.970Z,102825.38
2022-08-05T21:14:08.581Z,102824.72
2022-08-05T21:16:40.324Z,102815.03
2022-08-05T21:19:08.321Z,102819.63
2022-08-05T21:21:39.414Z,102817.03
2022-08-05T21:24:13.545Z,102822.66
2022-08-05T21:26:47.364Z,102829.78
2022-08-05T21:29:26.521Z,102830.66
2022-08-05T21:31:59.582Z,102834.22
2022-08-05T21:34:28.651Z,102822.50
2022-08-05T21:37:01.789Z,102832.41
2022-08-05T21:39:30.531Z,102835.13
2022-08-05T21:42:02.623Z,102840.66
2022-08-05T21:44:31.088Z,102835.34
2022-08-05T21:46:59.906Z,102845.25
2022-08-05T21:49:56.892Z,102843.47
2022-08-05T21:52:26.854Z,102846.44
2022-08-05T21:54:56.210Z,102847.44
2022-08-05T21:57:32.507Z,102853.69
2022-08-05T22:00:05.783Z,102861.88
2022-08-05T22:02:35.038Z,102858.28
2022-08-05T22:05:04.437Z,102866.47
2022-08-05T22:07:39.338Z,102860.34
2022-08-05T22:10:26.847Z,102864.06
2022-08-05T22:12:57.359Z,102862.28
2022-08-05T22:16:02.654Z,102870.38
2022-08-05T22:18:14.955Z,102871.41
2022-08-05T22:20:44.246Z,102868.78
2022-08-05T22:24:02.180Z,102853.03
2022-08-05T22:26:38.091Z,102857.34
2022-08-05T22:29:06.209Z,102862.09
2022-08-05T22:31:44.940Z,102872.88
2022-08-05T22:34:20.208Z,102873.88
2022-08-05T22:36:56.534Z,102859.59
2022-08-05T22:39:33.354Z,102858.78
2022-08-05T22:42:10.198Z,102865.31
2022-08-05T22:44:56.454Z,102862.00
2022-08-05T22:47:29.096Z,102868.28
2022-08-05T22:50:20.636Z,102872.00
2022-08-05T22:52:47.470Z,102864.31
2022-08-05T22:55:18.278Z,102878.13
2022-08-05T22:57:49.087Z,102883.88
2022-08-05T23:00:18.441Z,102879.97
2022-08-05T23:02:49.034Z,102884.00
2022-08-05T23:05:17.114Z,102890.66
2022-08-05T23:07:48.537Z,102890.03
2022-08-05T23:10:20.889Z,102897.34
2022-08-05T23:12:54.544Z,102899.25
2022-08-05T23:15:29.455Z,102904.75
2022-08-05T23:18:01.176Z,102902.50
2022-08-05T23:20:31.264Z,102900.41
2022-08-05T23:23:00.188Z,102897.81
2022-08-05T23:25:51.214Z,102900.63
2022-08-05T23:28:20.930Z,102885.78
2022-08-05T23:30:53.184Z,102902.44
2022-08-05T23:33:26.067Z,102905.00
2022-08-05T23:36:10.450Z,102904.06
2022-08-05T23:38:38.652Z,102892.50
2022-08-05T23:41:08.085Z,102912.25
2022-08-05T23:44:03.617Z,102907.94
2022-08-05T23:46:24.807Z,102909.44
2022-08-05T23:49:00.014Z,102910.63
2022-08-05T23:51:52.585Z,102899.22
2022-08-05T23:54:25.981Z,102908.28
2022-08-05T23:56:58.237Z,102923.63
